Time;durP1;ratioP1;P1;durP2;ratioP2;P2;SDS_P1;SDS_P2;PMS_P1;PMS_P2;Temp;Humidity;BMP_temperature;BMP_pressure;BME280_temperature;BME280_humidity;BME280_pressure;Samples;Min_cycle;Max_cycle;Signal;HPM_P1;HPM_P2
2023/01/16 00:00:55;;;;;;;20.30;6.63;;;;;;;4.05;70.69;99617.41;4998627;28;20033;-75
2023/01/16 00:03:21;;;;;;;26.90;6.60;;;;;;;4.06;70.87;99607.00;4999638;28;20109;-75
2023/01/16 00:05:46;;;;;;;24.40;7.97;;;;;;;4.09;70.90;99598.34;4999486;28;20475;-75
2023/01/16 00:08:12;;;;;;;18.17;6.30;;;;;;;4.11;71.07;99591.44;4999575;28;20086;-75
2023/01/16 00:10:38;;;;;;;21.67;5.63;;;;;;;4.11;71.09;99588.81;4999221;28;20037;-75
2023/01/16 00:13:04;;;;;;;17.80;6.20;;;;;;;4.12;70.71;99570.63;5014426;28;20061;-75
2023/01/16 00:15:29;;;;;;;21.02;6.43;;;;;;;4.14;70.38;99570.59;4999338;28;20431;-76
2023/01/16 00:17:55;;;;;;;23.40;7.13;;;;;;;4.15;70.61;99556.72;4999335;28;20442;-75
2023/01/16 00:20:21;;;;;;;15.27;5.23;;;;;;;4.16;70.61;99542.84;4999019;28;20258;-75
2023/01/16 00:22:46;;;;;;;16.52;4.57;;;;;;;4.16;70.82;99535.91;4986804;28;20491;-75
2023/01/16 00:25:12;;;;;;;15.57;4.40;;;;;;;4.18;70.10;99533.28;4988152;28;20053;-75
2023/01/16 00:27:37;;;;;;;16.27;5.40;;;;;;;4.20;70.60;99512.47;4999482;28;20133;-75
2023/01/16 00:30:04;;;;;;;18.08;5.63;;;;;;;4.22;70.58;99510.75;4999016;28;20042;-75
2023/01/16 00:32:30;;;;;;;19.93;5.30;;;;;;;4.23;70.58;99487.34;4998928;28;20050;-75
2023/01/16 00:34:55;;;;;;;19.92;5.95;;;;;;;4.24;70.22;99486.47;4998944;28;20030;-75
2023/01/16 00:37:20;;;;;;;16.07;4.23;;;;;;;4.28;70.53;99470.00;5004024;28;20122;-75
2023/01/16 00:39:46;;;;;;;20.50;4.77;;;;;;;4.31;70.37;99451.78;4998280;28;20105;-75
2023/01/16 00:42:11;;;;;;;13.93;4.17;;;;;;;4.34;70.38;99434.41;4998853;28;20105;-76
2023/01/16 00:44:37;;;;;;;15.90;3.60;;;;;;;4.35;70.53;99425.72;4998654;28;20023;-75
2023/01/16 00:47:03;;;;;;;14.03;4.00;;;;;;;4.40;70.35;99413.59;4998945;28;20022;-75
2023/01/16 00:49:28;;;;;;;14.67;3.63;;;;;;;4.42;70.23;99393.63;4998611;28;20064;-76
2023/01/16 00:51:53;;;;;;;12.88;3.22;;;;;;;4.43;70.51;99382.34;4998732;28;20030;-75
2023/01/16 00:54:19;;;;;;;13.63;3.37;;;;;;;4.47;70.71;99365.88;4998208;28;20576;-75
2023/01/16 00:56:44;;;;;;;14.13;3.70;;;;;;;4.49;70.52;99353.72;4998795;28;20029;-75
2023/01/16 00:59:11;;;;;;;11.38;3.20;;;;;;;4.52;70.38;99342.41;4998533;28;20475;-75
2023/01/16 01:01:37;;;;;;;16.97;3.00;;;;;;;4.57;70.22;99340.69;4998540;28;20054;-75
2023/01/16 01:04:03;;;;;;;10.18;3.85;;;;;;;4.59;70.78;99319.00;4998235;28;20033;-75
2023/01/16 01:06:28;;;;;;;20.15;3.55;;;;;;;4.63;70.15;99314.69;4998492;28;20467;-75
2023/01/16 01:08:54;;;;;;;11.03;2.57;;;;;;;4.62;70.07;99306.84;4997942;28;20046;-75
2023/01/16 01:11:19;;;;;;;10.07;2.40;;;;;;;4.57;69.73;99297.25;4997126;28;20534;-75
2023/01/16 01:13:45;;;;;;;11.27;2.90;;;;;;;4.54;69.72;99286.81;4996900;28;20268;-75
2023/01/16 01:16:11;;;;;;;14.47;2.83;;;;;;;4.50;70.21;99268.53;5013413;28;20034;-75
2023/01/16 01:18:37;;;;;;;11.60;2.80;;;;;;;4.45;69.95;99264.19;4996726;28;20041;-75
2023/01/16 01:21:03;;;;;;;10.65;2.78;;;;;;;4.38;69.83;99256.31;4998125;28;20029;-75
2023/01/16 01:23:28;;;;;;;9.50;2.53;;;;;;;4.33;69.62;99242.41;4979230;28;20042;-75
2023/01/16 01:25:54;;;;;;;10.50;2.97;;;;;;;4.28;69.95;99244.97;4992893;28;20032;-75
2023/01/16 01:28:20;;;;;;;17.27;3.42;;;;;;;4.23;69.47;99237.16;4997933;28;20033;-75
2023/01/16 01:30:45;;;;;;;9.40;2.37;;;;;;;4.16;69.37;99230.16;4998393;28;20061;-75
2023/01/16 01:33:11;;;;;;;11.57;2.45;;;;;;;4.12;69.58;99224.06;4997832;28;20487;-75
2023/01/16 01:35:37;;;;;;;8.27;2.10;;;;;;;4.07;69.57;99210.13;4996974;28;20478;-75
2023/01/16 01:38:03;;;;;;;7.88;1.40;;;;;;;4.01;69.24;99197.97;4997831;28;20029;-75
2023/01/16 01:40:29;;;;;;;8.80;1.97;;;;;;;3.99;69.88;99191.88;4997956;28;20055;-76
2023/01/16 01:42:54;;;;;;;7.60;2.37;;;;;;;3.95;69.52;99195.28;4996517;28;20277;-75
2023/01/16 01:45:21;;;;;;;8.93;2.10;;;;;;;3.93;69.77;99190.97;4997930;28;20521;-75
2023/01/16 01:48:18;;;;;;;9.27;2.15;;;;;;;3.86;68.67;99187.44;4997441;28;20033;-76
2023/01/16 01:51:01;;;;;;;11.73;2.13;;;;;;;3.86;69.63;99148.38;4997663;28;20526;-75
2023/01/16 01:53:40;;;;;;;11.30;2.50;;;;;;;3.84;69.64;99134.47;4997525;28;20030;-75
2023/01/16 01:56:11;;;;;;;13.93;2.93;;;;;;;3.80;69.17;99137.94;4997660;28;20130;-75
2023/01/16 01:58:37;;;;;;;8.10;1.75;;;;;;;3.78;69.23;99121.44;4997755;28;20022;-75
2023/01/16 02:01:03;;;;;;;8.10;1.92;;;;;;;3.75;69.74;99109.25;4997699;28;20507;-75
2023/01/16 02:03:55;;;;;;;9.63;2.00;;;;;;;3.76;69.31;99097.13;4996116;28;20037;-75
2023/01/16 02:06:25;;;;;;;9.98;2.10;;;;;;;3.76;69.68;99086.72;5012246;28;20172;-75
2023/01/16 02:08:54;;;;;;;9.73;2.10;;;;;;;3.79;69.99;99068.50;4997027;28;20046;-76
2023/01/16 02:11:42;;;;;;;13.02;2.58;;;;;;;3.84;69.40;99056.34;4997573;28;20031;-75
2023/01/16 02:14:11;;;;;;;7.10;1.73;;;;;;;3.92;70.11;99051.19;4988449;28;20058;-76
2023/01/16 02:19:24;;;;;;;8.95;2.13;;;;;;;4.05;69.92;99049.47;4997326;28;20096;-75
2023/01/16 02:22:37;;;;;;;9.03;2.40;;;;;;;4.09;69.14;99036.44;4992449;28;20432;-75
2023/01/16 02:25:15;;;;;;;10.60;2.67;;;;;;;4.11;69.00;99031.25;4995706;28;20498;-75
2023/01/16 02:27:59;;;;;;;12.35;2.67;;;;;;;4.13;68.43;99021.69;4990281;28;20061;-75
2023/01/16 02:30:49;;;;;;;6.57;2.63;;;;;;;4.13;68.55;99026.91;4996304;28;20034;-75
2023/01/16 02:33:28;;;;;;;12.27;3.10;;;;;;;4.16;69.02;99032.13;4996884;28;20034;-75
2023/01/16 02:35:59;;;;;;;9.50;2.77;;;;;;;4.19;68.99;99020.84;5001171;28;20088;-75
2023/01/16 02:38:30;;;;;;;8.70;2.60;;;;;;;4.22;69.19;99026.94;4997025;28;20415;-75
2023/01/16 02:41:14;;;;;;;9.32;2.95;;;;;;;4.22;68.88;99021.75;4997347;28;20379;-75
2023/01/16 02:43:56;;;;;;;10.35;2.92;;;;;;;4.28;68.93;99026.94;5012529;28;20053;-75
2023/01/16 02:46:21;;;;;;;9.40;2.30;;;;;;;4.31;69.11;99033.88;5014448;28;20160;-75
2023/01/16 02:48:52;;;;;;;9.57;2.40;;;;;;;4.38;68.84;99034.78;5000935;28;20058;-75
2023/01/16 02:51:44;;;;;;;9.53;2.90;;;;;;;4.41;69.02;99026.94;5016058;28;20026;-75
2023/01/16 02:54:24;;;;;;;8.23;2.50;;;;;;;4.45;68.50;99002.63;4998943;28;20525;-75
2023/01/16 02:56:57;;;;;;;8.55;2.70;;;;;;;4.52;69.02;99004.38;5001104;28;20355;-75
2023/01/16 02:59:24;;;;;;;10.20;2.50;;;;;;;4.58;68.59;99030.44;5000841;28;20026;-75
2023/01/16 03:01:50;;;;;;;8.95;2.90;;;;;;;4.60;69.12;99015.66;5000801;28;20023;-75
2023/01/16 03:04:40;;;;;;;9.97;2.47;;;;;;;4.60;68.85;99020.88;5000674;28;20490;-75
2023/01/16 03:07:27;;;;;;;7.53;2.33;;;;;;;4.56;68.07;99006.13;5000576;28;20033;-76
2023/01/16 03:09:58;;;;;;;9.60;2.75;;;;;;;4.60;69.24;99018.28;5000271;28;20114;-75
2023/01/16 03:12:32;;;;;;;10.55;2.65;;;;;;;4.63;69.34;98985.25;5000624;28;20499;-75
2023/01/16 03:15:11;;;;;;;8.57;2.50;;;;;;;4.64;69.50;98994.81;5000529;28;20034;-75
2023/01/16 03:17:37;;;;;;;9.90;2.50;;;;;;;4.65;69.39;98978.28;5000577;28;20026;-76
2023/01/16 03:20:28;;;;;;;8.00;2.37;;;;;;;4.60;69.43;98947.03;5000339;28;20065;-76
2023/01/16 03:23:12;;;;;;;9.60;3.15;;;;;;;4.63;69.57;98964.38;4989186;28;20057;-76
2023/01/16 03:26:01;;;;;;;7.97;2.25;;;;;;;4.62;69.69;98960.03;4987477;28;20026;-76
2023/01/16 03:28:26;;;;;;;7.57;2.80;;;;;;;4.65;69.84;98947.88;4999918;28;20394;-76
2023/01/16 03:31:11;;;;;;;9.13;2.30;;;;;;;4.64;69.51;98934.84;4995803;28;20030;-76
2023/01/16 03:33:43;;;;;;;11.63;2.90;;;;;;;4.64;69.47;98934.84;4992281;28;20034;-76
2023/01/16 03:36:24;;;;;;;10.33;3.03;;;;;;;4.57;69.56;98908.78;5004710;28;20084;-76
2023/01/16 03:38:51;;;;;;;10.20;2.47;;;;;;;4.54;70.64;98907.91;5000033;28;20026;-76
2023/01/16 03:41:22;;;;;;;9.20;2.42;;;;;;;4.51;70.55;98906.19;5000023;28;20033;-76
2023/01/16 03:43:54;;;;;;;12.55;2.58;;;;;;;4.47;71.42;98894.03;5000178;28;20022;-76
2023/01/16 03:46:26;;;;;;;12.15;2.72;;;;;;;4.48;71.63;98889.66;5000011;28;20027;-76
2023/01/16 03:49:13;;;;;;;9.40;2.73;;;;;;;4.45;72.80;98877.50;4999884;28;20026;-75
2023/01/16 03:51:47;;;;;;;8.00;2.13;;;;;;;4.47;72.45;98875.78;5000035;28;20022;-75
2023/01/16 03:54:44;;;;;;;9.32;2.50;;;;;;;4.45;72.86;98867.06;4999505;28;20030;-76
2023/01/16 03:57:22;;;;;;;8.30;1.60;;;;;;;4.44;72.99;98852.31;4999265;28;20030;-76
2023/01/16 03:59:49;;;;;;;11.88;1.90;;;;;;;4.49;73.17;98841.88;5014779;28;20038;-76
2023/01/16 04:02:23;;;;;;;10.13;1.87;;;;;;;4.48;75.19;98840.13;4999492;28;20026;-76
2023/01/16 04:04:49;;;;;;;9.15;1.80;;;;;;;4.51;75.52;98834.91;4999807;28;20446;-76
2023/01/16 04:07:40;;;;;;;7.22;2.05;;;;;;;4.56;76.88;98836.66;4999292;28;20022;-77
2023/01/16 04:10:12;;;;;;;8.77;2.00;;;;;;;4.65;76.56;98830.53;4999220;28;20031;-76
2023/01/16 04:12:43;;;;;;;5.80;2.20;;;;;;;4.68;76.05;98827.03;4999699;28;20072;-76
2023/01/16 04:15:10;;;;;;;7.90;1.80;;;;;;;4.69;76.40;98829.66;4999323;28;20034;-76
2023/01/16 04:17:38;;;;;;;8.07;1.30;;;;;;;4.72;76.41;98828.78;4999483;28;20022;-76
2023/01/16 04:20:06;;;;;;;8.27;1.95;;;;;;;4.72;76.70;98821.81;4999112;28;20026;-76
2023/01/16 04:22:31;;;;;;;5.97;1.70;;;;;;;4.72;76.55;98813.16;4989687;28;20057;-76
2023/01/16 04:25:00;;;;;;;5.32;1.30;;;;;;;4.72;76.46;98805.31;4985946;28;20022;-76
2023/01/16 04:27:26;;;;;;;6.45;1.33;;;;;;;4.74;76.66;98812.25;4999401;28;20116;-76
2023/01/16 04:29:51;;;;;;;5.93;1.23;;;;;;;4.77;76.76;98785.28;4998992;28;20030;-76
2023/01/16 04:32:17;;;;;;;5.95;1.30;;;;;;;4.80;77.55;98772.25;4999116;28;20030;-76
2023/01/16 04:34:42;;;;;;;6.20;0.90;;;;;;;4.84;76.97;98768.75;4997740;28;20029;-76
2023/01/16 04:37:12;;;;;;;6.50;1.63;;;;;;;4.89;76.70;98764.34;5002827;28;20432;-76
2023/01/16 04:39:37;;;;;;;9.70;0.90;;;;;;;4.94;77.54;98756.50;4997399;28;20321;-76
2023/01/16 04:42:03;;;;;;;5.30;0.90;;;;;;;5.00;77.03;98761.69;4998988;28;20085;-76
2023/01/16 04:44:28;;;;;;;4.75;0.85;;;;;;;5.06;77.02;98755.56;4998906;28;20794;-76
2023/01/16 04:46:54;;;;;;;5.63;1.00;;;;;;;5.12;77.51;98750.31;4999048;28;20030;-76
2023/01/16 04:49:19;;;;;;;7.70;1.00;;;;;;;5.20;77.18;98757.25;4998529;28;20939;-76
2023/01/16 04:51:45;;;;;;;7.32;1.30;;;;;;;5.25;77.01;98745.03;4998781;28;20025;-76
2023/01/16 04:54:15;;;;;;;6.77;2.03;;;;;;;5.31;77.73;98747.59;4998294;28;20061;-76
2023/01/16 04:56:41;;;;;;;6.63;2.03;;;;;;;5.38;77.27;98757.09;4998993;28;20029;-76
2023/01/16 04:59:07;;;;;;;5.32;1.10;;;;;;;5.43;77.04;98749.22;4998589;28;20533;-76
2023/01/16 05:01:34;;;;;;;4.53;1.20;;;;;;;5.47;76.90;98761.38;4998846;28;20018;-76
2023/01/16 05:04:11;;;;;;;5.65;2.30;;;;;;;5.51;76.92;98757.00;4998660;28;20483;-76
2023/01/16 05:06:37;;;;;;;4.18;1.20;;;;;;;5.50;76.22;98760.50;5013886;28;20065;-76
2023/01/16 05:09:04;;;;;;;5.90;1.60;;;;;;;5.50;77.06;98776.16;4997381;28;20038;-76
2023/01/16 05:11:29;;;;;;;4.75;1.20;;;;;;;5.55;77.07;98774.38;4998741;28;20510;-76
2023/01/16 05:13:55;;;;;;;9.20;1.03;;;;;;;5.58;77.01;98769.13;4998714;28;20030;-76
2023/01/16 05:16:20;;;;;;;6.73;1.00;;;;;;;5.59;76.82;98752.59;4997615;28;20034;-76
2023/01/16 05:18:46;;;;;;;4.72;0.95;;;;;;;5.60;76.51;98747.38;4997416;28;20076;-76
2023/01/16 05:21:11;;;;;;;5.37;1.30;;;;;;;5.63;77.28;98756.91;4998176;28;20080;-76
2023/01/16 05:23:37;;;;;;;3.57;0.60;;;;;;;5.69;76.78;98753.38;4998214;28;20034;-76
2023/01/16 05:26:04;;;;;;;3.75;0.60;;;;;;;5.76;77.12;98747.22;4998390;28;20030;-76
2023/01/16 05:28:30;;;;;;;3.20;0.60;;;;;;;5.82;76.78;98741.06;4998243;28;20045;-76
2023/01/16 05:30:56;;;;;;;4.07;0.80;;;;;;;5.87;77.06;98740.16;4998447;28;20395;-76
2023/01/16 05:33:22;;;;;;;5.13;0.77;;;;;;;5.94;76.69;98740.97;4998087;28;20084;-76
2023/01/16 05:35:47;;;;;;;4.50;0.60;;;;;;;6.00;76.97;98743.50;5000183;28;20022;-76
2023/01/16 05:38:14;;;;;;;4.50;0.60;;;;;;;6.05;76.90;98717.38;4998190;28;20033;-76
2023/01/16 05:40:39;;;;;;;2.70;0.50;;;;;;;6.11;76.70;98730.38;4998250;28;20026;-75
2023/01/16 05:43:05;;;;;;;5.83;0.70;;;;;;;6.17;76.87;98742.50;4998189;28;20479;-76
2023/01/16 05:45:30;;;;;;;4.30;0.90;;;;;;;6.23;77.06;98744.16;4998257;28;20022;-76
2023/01/16 05:47:56;;;;;;;3.30;0.50;;;;;;;6.29;76.54;98744.13;4997709;28;20272;-76
2023/01/16 05:50:21;;;;;;;3.53;0.50;;;;;;;6.34;77.30;98737.09;4997949;28;20035;-76
2023/01/16 05:52:47;;;;;;;2.67;0.50;;;;;;;6.43;76.54;98723.03;4997914;28;20019;-76
2023/01/16 05:55:12;;;;;;;3.20;0.50;;;;;;;6.52;77.18;98730.75;4996488;28;20033;-76
2023/01/16 05:57:38;;;;;;;3.60;0.40;;;;;;;6.60;76.85;98726.28;4997835;28;20026;-76
2023/01/16 06:00:05;;;;;;;2.30;0.50;;;;;;;6.69;76.85;98725.31;4997905;28;20022;-76
2023/01/16 06:02:31;;;;;;;3.60;0.50;;;;;;;6.74;76.58;98720.03;4997717;28;20036;-76
2023/01/16 06:04:57;;;;;;;2.78;0.50;;;;;;;6.80;76.38;98719.94;4996780;28;20434;-76
2023/01/16 06:07:22;;;;;;;3.05;0.50;;;;;;;6.84;76.69;98721.63;4997856;28;20546;-76
2023/01/16 06:09:48;;;;;;;2.80;0.50;;;;;;;6.91;77.14;98724.16;4997572;28;20029;-76
2023/01/16 06:12:18;;;;;;;4.43;0.50;;;;;;;6.92;76.63;98724.13;4997720;28;20022;-76
2023/01/16 06:14:44;;;;;;;2.70;0.40;;;;;;;6.97;77.06;98718.84;4997752;28;20037;-76
2023/01/16 06:17:15;;;;;;;2.50;0.30;;;;;;;7.00;76.64;98710.94;4997244;28;20030;-76
2023/01/16 06:19:44;;;;;;;3.40;0.50;;;;;;;7.02;76.68;98711.78;4997575;28;20025;-76
2023/01/16 06:22:11;;;;;;;3.40;0.60;;;;;;;7.04;77.14;98707.38;4990837;28;20035;-76
2023/01/16 06:24:36;;;;;;;4.72;0.70;;;;;;;7.06;76.34;98708.22;4989787;28;20598;-76
2023/01/16 06:27:02;;;;;;;3.00;0.50;;;;;;;7.07;76.24;98711.72;4997925;28;20109;-76
2023/01/16 06:29:27;;;;;;;3.33;0.43;;;;;;;7.07;76.40;98712.56;4997677;28;20109;-76
2023/01/16 06:31:53;;;;;;;3.58;0.32;;;;;;;7.09;76.32;98718.66;4997380;28;20106;-76
2023/01/16 06:34:18;;;;;;;4.33;0.50;;;;;;;7.08;76.35;98722.16;5002550;28;20026;-76
2023/01/16 06:36:45;;;;;;;3.27;0.40;;;;;;;7.10;76.12;98722.16;5001828;28;20033;-76
2023/01/16 06:39:11;;;;;;;3.60;0.40;;;;;;;7.10;76.21;98720.38;4997449;28;20374;-76
2023/01/16 06:41:37;;;;;;;4.18;0.32;;;;;;;7.10;76.56;98709.06;4997488;28;20117;-76
2023/01/16 06:44:02;;;;;;;3.00;0.43;;;;;;;7.07;76.85;98694.25;4997544;28;20085;-76
2023/01/16 06:46:28;;;;;;;5.80;0.40;;;;;;;7.04;76.59;98687.34;4997113;28;20068;-76
2023/01/16 06:48:53;;;;;;;2.67;0.35;;;;;;;7.05;76.21;98675.09;4997006;28;20053;-76
2023/01/16 06:51:18;;;;;;;3.07;0.50;;;;;;;7.06;77.08;98684.66;4996569;28;20034;-76
2023/01/16 06:53:44;;;;;;;3.87;0.40;;;;;;;7.04;76.66;98670.75;4997078;28;20026;-76
2023/01/16 06:56:09;;;;;;;2.17;0.40;;;;;;;7.04;76.27;98670.75;4984442;28;20033;-76
2023/01/16 06:58:35;;;;;;;2.60;0.30;;;;;;;7.05;76.37;98675.09;4996152;28;20475;-76
2023/01/16 07:01:00;;;;;;;2.20;0.30;;;;;;;7.04;76.79;98669.00;4997322;28;20033;-75
2023/01/16 07:03:25;;;;;;;3.77;0.50;;;;;;;7.06;76.72;98655.03;4996491;28;20057;-76
2023/01/16 07:05:51;;;;;;;2.23;0.30;;;;;;;7.02;76.96;98651.59;4990882;28;20026;-76
2023/01/16 07:08:16;;;;;;;2.60;0.30;;;;;;;7.03;76.42;98654.19;4989477;28;20054;-75
2023/01/16 07:10:42;;;;;;;3.03;0.52;;;;;;;7.01;76.62;98657.72;4986216;28;20030;-77
2023/01/16 07:13:09;;;;;;;1.33;0.20;;;;;;;7.00;77.54;98661.22;4996771;28;21182;-79
2023/01/16 07:24:00;;;;;;;2.38;0.22;;;;;;;7.00;77.70;98646.41;5007291;28;20032;-84
2023/01/16 07:26:27;;;;;;;2.45;0.30;;;;;;;7.01;77.51;98626.31;5008651;28;20117;-82
2023/01/16 07:28:54;;;;;;;2.80;0.30;;;;;;;6.99;76.96;98638.56;4977637;28;20025;-82
2023/01/16 07:31:20;;;;;;;1.48;0.30;;;;;;;7.00;77.40;98638.53;4995554;28;20547;-84
2023/01/16 07:33:45;;;;;;;2.23;0.30;;;;;;;7.02;77.35;98638.50;4998884;28;20022;-83
2023/01/16 07:36:11;;;;;;;1.63;0.20;;;;;;;7.01;77.19;98621.94;5003331;28;20117;-83
2023/01/16 07:38:36;;;;;;;1.83;0.30;;;;;;;7.03;77.37;98632.38;4998423;28;20490;-82
2023/01/16 07:41:02;;;;;;;2.53;0.30;;;;;;;7.04;76.90;98627.13;4998135;28;20506;-83
2023/01/16 07:43:27;;;;;;;1.15;0.20;;;;;;;7.04;77.22;98621.00;4999793;28;20026;-81
2023/01/16 07:45:53;;;;;;;1.80;0.20;;;;;;;7.06;77.20;98624.47;4999181;28;20055;-81
2023/01/16 07:48:20;;;;;;;1.53;0.20;;;;;;;7.07;76.53;98623.56;4989911;28;20029;-80
2023/01/16 07:50:51;;;;;;;3.47;0.20;;;;;;;7.07;77.13;98617.50;5010666;28;20088;-80
2023/01/16 07:53:21;;;;;;;1.77;0.20;;;;;;;7.11;77.19;98616.56;4999113;28;20459;-80
2023/01/16 07:55:46;;;;;;;1.63;0.20;;;;;;;7.12;77.05;98627.00;4998794;28;20557;-80
2023/01/16 07:58:12;;;;;;;1.75;0.20;;;;;;;7.16;77.09;98620.81;5015458;28;20026;-80
2023/01/16 08:00:37;;;;;;;1.73;0.23;;;;;;;7.21;76.79;98627.72;4997228;28;20042;-80
2023/01/16 08:03:02;;;;;;;1.37;0.20;;;;;;;7.24;77.18;98622.44;5000106;28;20471;-80
2023/01/16 08:05:28;;;;;;;1.65;0.20;;;;;;;7.27;76.88;98633.75;5014786;28;20509;-81
2023/01/16 08:07:54;;;;;;;1.47;0.20;;;;;;;7.31;76.66;98639.75;5014584;28;20131;-80
2023/01/16 08:10:20;;;;;;;2.65;0.65;;;;;;;7.35;76.57;98646.69;4999267;28;20551;-80
2023/01/16 08:12:45;;;;;;;4.27;0.60;;;;;;;7.38;76.54;98646.66;4999888;28;20097;-80
2023/01/16 08:15:11;;;;;;;3.50;0.97;;;;;;;7.42;76.82;98663.16;4999667;28;20117;-80
2023/01/16 08:17:39;;;;;;;4.43;0.80;;;;;;;7.43;76.48;98671.00;4998510;28;20030;-80
2023/01/16 08:20:05;;;;;;;2.80;0.30;;;;;;;7.45;76.38;98663.09;4999358;28;20102;-80
2023/01/16 08:22:30;;;;;;;2.05;0.20;;;;;;;7.50;76.82;98676.13;4988294;28;20058;-80
2023/01/16 08:24:56;;;;;;;1.70;0.20;;;;;;;7.55;76.62;98680.41;5001583;28;20037;-80
2023/01/16 08:27:21;;;;;;;1.63;0.20;;;;;;;7.56;76.29;98687.38;4999655;28;20030;-80
2023/01/16 08:29:47;;;;;;;2.72;0.38;;;;;;;7.56;75.52;98695.22;4999678;28;20032;-80
2023/01/16 08:32:12;;;;;;;2.40;0.30;;;;;;;7.63;76.18;98697.72;5014375;28;20029;-80
2023/01/16 08:34:37;;;;;;;2.00;0.40;;;;;;;7.65;76.48;98698.56;4999383;28;20104;-80
2023/01/16 08:37:04;;;;;;;1.70;0.20;;;;;;;7.65;76.26;98686.34;4999044;28;20026;-80
2023/01/16 08:39:29;;;;;;;2.47;0.20;;;;;;;7.67;76.12;98681.94;5010398;28;20038;-80
2023/01/16 08:53:01;;;;;;;3.42;0.20;;;;;;;7.67;76.05;98702.91;4998930;28;20060;-80
2023/01/16 08:55:26;;;;;;;1.77;0.20;;;;;;;7.68;76.14;98711.59;4998894;28;20026;-80
2023/01/16 08:57:52;;;;;;;1.90;0.20;;;;;;;7.71;76.27;98716.78;5014024;28;20034;-80
2023/01/16 09:00:19;;;;;;;1.83;0.20;;;;;;;7.71;75.95;98706.31;4997831;28;20034;-80
2023/01/16 09:02:45;;;;;;;1.90;0.13;;;;;;;7.72;76.26;98697.59;4997507;28;20411;-80
2023/01/16 09:05:13;;;;;;;1.23;0.20;;;;;;;7.73;75.78;98705.41;4997508;28;20031;-80
2023/01/16 09:07:39;;;;;;;2.42;0.20;;;;;;;7.79;76.06;98714.03;4998544;28;20042;-80
2023/01/16 09:10:04;;;;;;;2.45;0.30;;;;;;;7.82;76.18;98719.22;4998240;28;20033;-80
2023/01/16 09:15:14;;;;;;;4.97;0.50;;;;;;;7.85;75.62;98727.06;4998497;28;20041;-80
2023/01/16 09:17:39;;;;;;;5.40;0.50;;;;;;;7.87;75.73;98722.66;4998474;28;20030;-80
2023/01/16 09:20:06;;;;;;;2.80;0.40;;;;;;;7.88;75.49;98725.22;5013669;28;20479;-80
2023/01/16 09:22:32;;;;;;;2.40;0.20;;;;;;;7.88;75.68;98729.63;4988289;28;20029;-80
2023/01/16 09:24:58;;;;;;;2.57;0.30;;;;;;;7.92;76.37;98715.56;4985810;28;20068;-80
2023/01/16 09:27:24;;;;;;;2.25;0.40;;;;;;;7.96;75.62;98735.56;4997233;28;20026;-80
2023/01/16 09:29:50;;;;;;;2.10;0.40;;;;;;;7.97;75.87;98745.16;5013269;28;20026;-80
2023/01/16 09:32:17;;;;;;;1.92;0.30;;;;;;;7.98;76.30;98739.03;4998202;28;20028;-80
2023/01/16 09:34:42;;;;;;;2.60;0.32;;;;;;;7.99;75.83;98743.38;4998302;28;20032;-80
2023/01/16 09:37:09;;;;;;;3.10;0.40;;;;;;;7.99;76.03;98742.53;5002489;28;20105;-81
2023/01/16 09:39:34;;;;;;;2.97;0.30;;;;;;;7.95;76.80;98746.94;5012963;28;20037;-82
2023/01/16 09:44:52;;;;;;;3.73;0.40;;;;;;;7.84;77.08;98755.00;4998185;28;20110;-80
2023/01/16 09:47:22;;;;;;;2.13;0.40;;;;;;;7.83;77.55;98758.53;4998147;28;20033;-81
2023/01/16 09:49:52;;;;;;;3.00;0.40;;;;;;;7.83;78.17;98760.25;4997986;28;20030;-80
2023/01/16 09:58:35;;;;;;;4.37;0.47;;;;;;;7.87;77.96;98741.00;4997910;28;20037;-80
2023/01/16 10:01:01;;;;;;;4.40;1.15;;;;;;;7.97;77.96;98734.69;4997977;28;20077;-80
2023/01/16 10:03:27;;;;;;;3.25;0.50;;;;;;;8.10;78.12;98730.06;4997703;28;20030;-80
2023/01/16 10:05:55;;;;;;;3.80;0.60;;;;;;;8.20;77.95;98730.75;5013041;28;20034;-80
2023/01/16 10:08:36;;;;;;;8.80;0.77;;;;;;;8.31;77.67;98720.91;5012329;28;20061;-80
2023/01/16 10:11:28;;;;;;;9.52;1.15;;;;;;;8.40;78.19;98721.66;5013066;28;20418;-81
2023/01/16 10:14:04;;;;;;;6.03;0.70;;;;;;;8.55;77.84;98725.75;4997583;28;20121;-80
2023/01/16 10:16:58;;;;;;;6.80;0.83;;;;;;;8.68;77.55;98723.72;4998069;28;20062;-80
2023/01/16 10:19:44;;;;;;;10.45;0.90;;;;;;;8.77;76.80;98726.16;4997991;28;20066;-80
2023/01/16 10:22:30;;;;;;;7.25;0.93;;;;;;;8.79;76.65;98734.84;4990830;28;20034;-80
2023/01/16 10:25:16;;;;;;;6.93;1.20;;;;;;;8.79;76.19;98729.59;4984710;28;20018;-80
2023/01/16 10:28:05;;;;;;;7.88;0.60;;;;;;;8.81;76.77;98735.72;4997741;28;20403;-80
2023/01/16 10:30:44;;;;;;;8.50;0.70;;;;;;;8.83;76.67;98741.78;4997793;28;20105;-80
2023/01/16 10:33:22;;;;;;;11.57;1.27;;;;;;;8.87;76.47;98732.06;4997567;28;20035;-80
2023/01/16 10:35:51;;;;;;;6.82;0.80;;;;;;;8.81;76.13;98735.72;4999187;28;20032;-80
2023/01/16 10:38:48;;;;;;;6.80;0.73;;;;;;;8.71;74.85;98727.16;4996766;28;20184;-80
2023/01/16 10:50:12;;;;;;;7.63;0.70;;;;;;;8.73;75.34;98700.88;4997273;28;20042;-80
2023/01/16 10:52:38;;;;;;;13.15;0.88;;;;;;;8.78;75.54;98687.66;4997383;28;20050;-80
2023/01/16 10:55:04;;;;;;;7.65;0.80;;;;;;;8.87;75.45;98680.44;4997021;28;20035;-80
2023/01/16 10:57:30;;;;;;;6.90;0.70;;;;;;;8.93;75.19;98668.06;5012323;28;20040;-80
2023/01/16 11:00:04;;;;;;;7.65;0.93;;;;;;;8.98;75.11;98668.81;4996966;28;20030;-79
2023/01/16 11:02:34;;;;;;;7.10;1.00;;;;;;;9.03;75.08;98657.31;4997045;28;20046;-80
2023/01/16 11:05:01;;;;;;;6.72;1.35;;;;;;;9.03;75.00;98659.94;4997496;28;20089;-80
2023/01/16 11:07:29;;;;;;;7.33;0.80;;;;;;;9.02;74.88;98658.22;4998095;28;20073;-80
2023/01/16 11:09:54;;;;;;;8.93;1.02;;;;;;;9.03;74.74;98643.31;4999490;28;20122;-80
2023/01/16 11:18:38;;;;;;;5.90;0.77;;;;;;;9.04;73.98;98634.53;5000719;28;20029;-79
2023/01/16 11:21:16;;;;;;;9.02;1.00;;;;;;;9.00;73.22;98628.50;5000255;28;20042;-80
2023/01/16 11:23:46;;;;;;;8.05;0.90;;;;;;;9.01;74.41;98631.97;5000515;28;20034;-80
2023/01/16 11:26:12;;;;;;;8.52;1.00;;;;;;;9.02;74.07;98638.97;5000625;28;20380;-80
2023/01/16 11:28:44;;;;;;;15.97;1.30;;;;;;;9.03;73.69;98643.31;5000849;28;20035;-80
2023/01/16 11:31:21;;;;;;;10.75;1.23;;;;;;;9.09;74.12;98637.06;5000613;28;20438;-80
2023/01/16 11:33:54;;;;;;;7.53;1.00;;;;;;;9.11;73.97;98633.50;5000346;28;20026;-80
2023/01/16 11:36:23;;;;;;;9.63;1.20;;;;;;;9.16;73.73;98639.50;5003493;28;20513;-80
2023/01/16 11:38:49;;;;;;;9.60;1.35;;;;;;;9.19;73.55;98649.91;5000259;28;20105;-80
2023/01/16 11:41:22;;;;;;;12.97;1.07;;;;;;;9.18;71.86;98645.56;5000393;28;20069;-80
2023/01/16 11:47:00;;;;;;;6.28;1.23;;;;;;;9.27;73.03;98646.22;4991877;28;20037;-80
2023/01/16 11:49:47;;;;;;;6.35;0.90;;;;;;;9.26;71.92;98652.38;5000258;28;20057;-80
2023/01/16 11:52:29;;;;;;;7.50;0.88;;;;;;;9.30;72.67;98649.66;4998839;28;20499;-80
2023/01/16 11:54:56;;;;;;;7.90;1.07;;;;;;;9.33;73.06;98646.94;4999710;28;20029;-80
2023/01/16 11:57:46;;;;;;;5.72;1.00;;;;;;;9.31;71.64;98642.66;5000922;28;20026;-80
2023/01/16 12:00:31;;;;;;;10.07;1.02;;;;;;;9.29;71.42;98634.81;5000001;28;20420;-79
2023/01/16 12:03:02;;;;;;;9.65;1.10;;;;;;;9.32;71.87;98629.47;5000173;28;20049;-80
2023/01/16 12:05:53;;;;;;;10.00;1.10;;;;;;;9.35;72.82;98620.66;4999946;28;20069;-80
2023/01/16 12:08:43;;;;;;;10.90;1.23;;;;;;;9.32;71.70;98604.97;4999858;28;20426;-80
2023/01/16 12:11:20;;;;;;;7.22;1.00;;;;;;;9.33;71.62;98598.81;4999966;28;20030;-80
2023/01/16 12:16:49;;;;;;;9.00;0.93;;;;;;;9.31;70.59;98564.69;4996237;28;20065;-79
2023/01/16 12:19:14;;;;;;;6.68;0.95;;;;;;;9.40;72.40;98550.47;5006027;28;20046;-78
2023/01/16 12:22:02;;;;;;;7.67;0.90;;;;;;;9.41;70.46;98557.44;4993318;28;20053;-78
2023/01/16 12:25:03;;;;;;;7.18;1.00;;;;;;;9.43;70.94;98547.75;5008827;28;20467;-76
2023/01/16 12:28:07;;;;;;;7.03;0.77;;;;;;;9.45;70.71;98540.69;4996542;28;20039;-77
2023/01/16 12:30:38;;;;;;;7.78;0.90;;;;;;;9.51;71.29;98544.03;4987372;28;20023;-76
2023/01/16 12:33:18;;;;;;;10.25;1.00;;;;;;;9.48;71.37;98537.13;5000811;28;20608;-77
2023/01/16 12:36:06;;;;;;;10.40;0.98;;;;;;;9.42;70.88;98525.00;5004082;28;20077;-79
2023/01/16 12:38:59;;;;;;;7.20;0.73;;;;;;;9.46;71.56;98521.38;4989031;28;20049;-79
2023/01/16 12:45:00;;;;;;;10.40;0.85;;;;;;;9.53;72.28;98516.81;4992068;28;20045;-79
2023/01/16 12:48:07;;;;;;;9.18;0.98;;;;;;;9.45;70.94;98514.41;4992363;28;20034;-78
2023/01/16 12:50:38;;;;;;;8.60;0.93;;;;;;;9.43;71.74;98507.50;4988945;28;20022;-78
2023/01/16 12:53:03;;;;;;;4.45;0.88;;;;;;;9.42;71.66;98501.34;4989160;28;20098;-77